Time,TemperatureF,DewpointF,PressureIn,WindDirection,WindDirectionDegrees,WindSpeedMPH,WindSpeedGustMPH,Humidity,HourlyPrecipIn,Conditions,Clouds,dailyrainin,SoftwareType,DateUTC
2013-02-06 00:07:00,27.7,13.2,0.00,SE,145,0.0,0.0,54,0.00,,---,0.00,VWS V14.01,2013-02-06 05:07:00,
2013-02-06 00:22:00,27.0,12.1,0.00,SE,145,0.0,0.0,53,0.00,,---,0.00,VWS V14.01,2013-02-06 05:22:00,
2013-02-06 00:30:00,26.8,12.0,0.00,SE,145,0.0,0.0,53,0.00,,---,0.00,VWS V14.01,2013-02-06 05:30:00,
2013-02-06 00:35:00,26.4,11.6,0.00,SE,145,0.0,0.0,53,0.00,,---,0.00,VWS V14.01,2013-02-06 05:35:00,
2013-02-06 00:52:00,27.3,12.5,0.00,SE,145,0.0,0.0,53,0.00,,---,0.00,VWS V14.01,2013-02-06 05:52:00,
2013-02-06 01:07:00,28.0,13.6,0.00,SE,145,0.0,0.0,54,0.00,,---,0.00,VWS V14.01,2013-02-06 06:07:00,
2013-02-06 01:22:00,27.1,11.9,0.00,SE,145,0.0,0.0,52,0.00,,---,0.00,VWS V14.01,2013-02-06 06:22:00,
2013-02-06 01:30:00,27.1,11.9,0.00,SE,145,0.0,0.0,52,0.00,,---,0.00,VWS V14.01,2013-02-06 06:30:00,
2013-02-06 01:35:00,27.5,12.6,0.00,SE,145,0.0,0.0,53,0.00,,---,0.00,VWS V14.01,2013-02-06 06:35:00,
2013-02-06 01:40:00,28.0,13.1,0.00,SE,145,0.0,0.0,53,0.00,,---,0.00,VWS V14.01,2013-02-06 06:40:00,
2013-02-06 01:45:00,28.4,13.5,0.00,SE,145,0.0,0.0,53,0.00,,---,0.00,VWS V14.01,2013-02-06 06:45:00,
2013-02-06 01:52:00,28.4,13.0,0.00,SE,145,0.0,0.0,52,0.00,,---,0.00,VWS V14.01,2013-02-06 06:52:00,
2013-02-06 02:07:00,28.6,12.8,0.00,SE,145,0.0,0.0,51,0.00,,---,0.00,VWS V14.01,2013-02-06 07:07:00,
2013-02-06 02:22:00,28.9,13.5,0.00,SE,145,0.0,0.0,52,0.00,,---,0.00,VWS V14.01,2013-02-06 07:22:00,
2013-02-06 02:30:00,29.3,13.9,0.00,SE,145,0.0,0.0,52,0.00,,---,0.00,VWS V14.01,2013-02-06 07:30:00,
2013-02-06 02:36:00,29.5,14.0,0.00,SE,145,0.0,0.0,52,0.00,,---,0.00,VWS V14.01,2013-02-06 07:36:00,
2013-02-06 02:52:00,29.7,14.2,0.00,SE,145,0.0,0.0,52,0.00,,---,0.00,VWS V14.01,2013-02-06 07:52:00,
2013-02-06 03:07:00,29.8,14.4,0.00,SE,145,0.0,0.0,52,0.00,,---,0.00,VWS V14.01,2013-02-06 08:07:00,
2013-02-06 03:22:00,30.0,14.5,0.00,SE,145,0.0,0.0,52,0.00,,---,0.00,VWS V14.01,2013-02-06 08:22:00,
2013-02-06 03:30:00,30.2,14.7,0.00,SE,145,0.0,0.0,52,0.00,,---,0.00,VWS V14.01,2013-02-06 08:30:00,
2013-02-06 03:35:00,30.4,14.9,0.00,SE,145,0.0,0.0,52,0.00,,---,0.00,VWS V14.01,2013-02-06 08:35:00,
2013-02-06 03:40:00,30.6,14.6,0.00,SE,145,0.0,0.0,51,0.00,,---,0.00,VWS V14.01,2013-02-06 08:40:00,
2013-02-06 03:52:00,30.6,14.6,0.00,SE,145,0.0,0.0,51,0.00,,---,0.00,VWS V14.01,2013-02-06 08:52:00,
2013-02-06 04:07:00,30.6,14.6,0.00,SE,145,0.0,0.0,51,0.00,,---,0.00,VWS V14.01,2013-02-06 09:07:00,
2013-02-06 04:22:00,30.7,14.8,0.00,SE,145,0.0,0.0,51,0.00,,---,0.00,VWS V14.01,2013-02-06 09:22:00,
2013-02-06 04:30:00,30.7,14.8,0.00,SE,145,0.0,0.0,51,0.00,,---,0.00,VWS V14.01,2013-02-06 09:30:00,
2013-02-06 04:36:00,30.9,14.9,0.00,SE,145,0.0,0.0,51,0.00,,---,0.00,VWS V14.01,2013-02-06 09:36:00,
2013-02-06 04:52:00,31.1,15.1,0.00,SE,145,0.0,0.0,51,0.00,,---,0.00,VWS V14.01,2013-02-06 09:52:00,
2013-02-06 05:07:00,31.1,14.6,0.00,SE,145,0.0,0.0,50,0.00,,---,0.00,VWS V14.01,2013-02-06 10:07:00,
2013-02-06 05:22:00,31.3,14.8,0.00,SE,145,0.0,0.0,50,0.00,,---,0.00,VWS V14.01,2013-02-06 10:22:00,
2013-02-06 05:30:00,31.5,15.0,0.00,SE,145,0.0,0.0,50,0.00,,---,0.00,VWS V14.01,2013-02-06 10:30:00,
2013-02-06 05:36:00,31.6,15.1,0.00,SE,145,0.0,0.0,50,0.00,,---,0.00,VWS V14.01,2013-02-06 10:36:00,
2013-02-06 05:41:00,31.6,15.1,0.00,SE,145,0.0,0.0,50,0.00,,---,0.00,VWS V14.01,2013-02-06 10:41:00,
2013-02-06 05:52:00,31.8,15.3,0.00,SE,145,0.0,0.0,50,0.00,,---,0.00,VWS V14.01,2013-02-06 10:52:00,
2013-02-06 06:07:00,32.2,15.6,0.00,SE,145,0.0,0.0,50,0.00,,---,0.00,VWS V14.01,2013-02-06 11:07:00,
2013-02-06 06:22:00,32.2,14.7,0.00,SE,145,0.0,0.0,48,0.00,,---,0.00,VWS V14.01,2013-02-06 11:22:00,
2013-02-06 06:30:00,32.2,14.7,0.00,SE,145,0.0,0.0,48,0.00,,---,0.00,VWS V14.01,2013-02-06 11:30:00,
2013-02-06 06:37:00,32.2,14.7,0.00,SE,145,0.0,0.0,48,0.00,,---,0.00,VWS V14.01,2013-02-06 11:37:00,
2013-02-06 06:52:00,32.2,14.7,0.00,SE,145,0.0,0.0,48,0.00,,---,0.00,VWS V14.01,2013-02-06 11:52:00,
2013-02-06 07:07:00,32.4,13.9,0.00,SE,145,0.0,0.0,46,0.00,,---,0.00,VWS V14.01,2013-02-06 12:07:00,
2013-02-06 07:22:00,32.7,13.7,0.00,SE,145,0.0,0.0,45,0.00,,---,0.00,VWS V14.01,2013-02-06 12:22:00,
2013-02-06 07:30:00,33.1,13.6,0.00,SSE,147,0.0,0.0,44,0.00,,---,0.00,VWS V14.01,2013-02-06 12:30:00,
2013-02-06 07:35:00,33.3,12.1,0.00,SSW,200,0.0,0.0,41,0.00,,---,0.00,VWS V14.01,2013-02-06 12:35:00,
2013-02-06 07:40:00,33.6,12.4,0.00,SSW,200,0.0,0.0,41,0.00,,---,0.00,VWS V14.01,2013-02-06 12:40:00,
2013-02-06 07:52:00,33.8,12.1,0.00,SW,234,0.0,0.0,40,0.00,,---,0.00,VWS V14.01,2013-02-06 12:52:00,
2013-02-06 08:07:00,34.0,12.2,0.00,West,268,0.0,2.2,40,0.00,,---,0.00,VWS V14.01,2013-02-06 13:07:00,
2013-02-06 08:22:00,34.0,12.2,0.00,NNW,337,0.0,2.2,40,0.00,,---,0.00,VWS V14.01,2013-02-06 13:22:00,
2013-02-06 08:30:00,34.0,12.2,0.00,NW,316,0.0,2.2,40,0.00,,---,0.00,VWS V14.01,2013-02-06 13:30:00,
2013-02-06 08:35:00,34.2,12.4,0.00,West,279,0.0,0.0,40,0.00,,---,0.00,VWS V14.01,2013-02-06 13:35:00,
2013-02-06 08:52:00,34.3,12.5,0.00,WNW,284,0.0,0.0,40,0.00,,---,0.00,VWS V14.01,2013-02-06 13:52:00,
2013-02-06 09:07:00,34.5,12.7,0.00,West,273,0.0,0.0,40,0.00,,---,0.00,VWS V14.01,2013-02-06 14:07:00,
2013-02-06 09:22:00,35.1,13.2,0.00,WNW,294,0.0,0.0,40,0.00,,---,0.00,VWS V14.01,2013-02-06 14:22:00,
2013-02-06 09:30:00,35.4,13.5,0.00,WNW,293,0.0,0.0,40,0.00,,---,0.00,VWS V14.01,2013-02-06 14:30:00,
2013-02-06 09:36:00,35.6,13.7,0.00,WNW,292,0.0,0.0,40,0.00,,---,0.00,VWS V14.01,2013-02-06 14:36:00,
2013-02-06 09:41:00,35.8,13.8,0.00,WNW,292,0.0,0.0,40,0.00,,---,0.00,VWS V14.01,2013-02-06 14:41:00,
2013-02-06 09:52:00,36.3,14.3,0.00,West,275,0.0,0.0,40,0.00,,---,0.00,VWS V14.01,2013-02-06 14:52:00,
2013-02-06 10:07:00,36.3,14.3,0.00,West,276,0.0,0.0,40,0.00,,---,0.00,VWS V14.01,2013-02-06 15:07:00,
2013-02-06 10:22:00,36.1,14.2,0.00,West,276,0.0,0.0,40,0.00,,---,0.00,VWS V14.01,2013-02-06 15:22:00,
2013-02-06 10:30:00,36.0,14.0,0.00,West,276,0.0,0.0,40,0.00,,---,0.00,VWS V14.01,2013-02-06 15:30:00,
2013-02-06 10:37:00,36.0,14.0,0.00,West,276,0.0,0.0,40,0.00,,---,0.00,VWS V14.01,2013-02-06 15:37:00,
2013-02-06 10:53:00,36.0,14.0,0.00,West,276,0.0,0.0,40,0.00,,---,0.00,VWS V14.01,2013-02-06 15:53:00,
2013-02-06 11:08:00,36.1,14.2,0.00,WNW,299,0.0,0.0,40,0.00,,---,0.00,VWS V14.01,2013-02-06 16:08:00,
2013-02-06 11:23:00,36.5,14.5,0.00,NW,310,0.0,0.0,40,0.00,,---,0.00,VWS V14.01,2013-02-06 16:23:00,
2013-02-06 11:30:00,36.5,14.5,0.00,NW,307,0.0,0.0,40,0.00,,---,0.00,VWS V14.01,2013-02-06 16:30:00,
2013-02-06 11:36:00,36.7,14.6,0.00,West,279,0.0,0.0,40,0.00,,---,0.00,VWS V14.01,2013-02-06 16:36:00,
2013-02-06 11:41:00,37.0,15.0,0.00,WNW,285,0.0,0.0,40,0.00,,---,0.00,VWS V14.01,2013-02-06 16:41:00,
2013-02-06 11:53:00,37.0,15.0,0.00,NW,317,0.0,2.2,40,0.00,,---,0.00,VWS V14.01,2013-02-06 16:53:00,
2013-02-06 12:08:00,37.0,15.0,0.00,WNW,283,0.0,2.2,40,0.00,,---,0.00,VWS V14.01,2013-02-06 17:08:00,
2013-02-06 12:23:00,36.7,14.6,0.00,WNW,285,0.0,2.2,40,0.00,,---,0.00,VWS V14.01,2013-02-06 17:23:00,
2013-02-06 12:30:00,37.0,15.0,0.00,West,280,0.0,2.2,40,0.00,,---,0.00,VWS V14.01,2013-02-06 17:30:00,
2013-02-06 12:38:00,37.2,15.1,0.00,NW,322,0.0,0.0,40,0.00,,---,0.00,VWS V14.01,2013-02-06 17:38:00,
2013-02-06 12:53:00,37.0,15.0,0.00,West,280,0.0,0.0,40,0.00,,---,0.00,VWS V14.01,2013-02-06 17:53:00,
2013-02-06 13:08:00,37.2,15.1,0.00,West,275,0.0,2.2,40,0.00,,---,0.00,VWS V14.01,2013-02-06 18:08:00,
2013-02-06 13:23:00,37.6,14.9,0.00,WNW,290,0.0,2.2,39,0.00,,---,0.00,VWS V14.01,2013-02-06 18:23:00,
2013-02-06 13:30:00,38.5,15.7,0.00,WNW,301,0.0,2.2,39,0.00,,---,0.00,VWS V14.01,2013-02-06 18:30:00,
2013-02-06 13:36:00,39.2,16.3,0.00,WSW,249,0.0,0.0,39,0.00,,---,0.00,VWS V14.01,2013-02-06 18:36:00,
2013-02-06 13:42:00,39.4,16.5,0.00,West,271,0.0,0.0,39,0.00,,---,0.00,VWS V14.01,2013-02-06 18:42:00,
2013-02-06 13:53:00,39.9,17.0,0.00,NW,314,0.0,2.2,39,0.00,,---,0.00,VWS V14.01,2013-02-06 18:53:00,
2013-02-06 14:08:00,40.1,17.1,0.00,NW,317,0.0,2.2,39,0.00,,---,0.00,VWS V14.01,2013-02-06 19:08:00,
2013-02-06 14:23:00,39.6,16.7,0.00,NW,326,0.0,2.2,39,0.00,,---,0.00,VWS V14.01,2013-02-06 19:23:00,
2013-02-06 14:30:00,39.9,17.0,0.00,NW,312,0.0,2.2,39,0.00,,---,0.00,VWS V14.01,2013-02-06 19:30:00,
2013-02-06 14:38:00,39.9,17.0,0.00,West,278,0.0,0.0,39,0.00,,---,0.00,VWS V14.01,2013-02-06 19:38:00,
2013-02-06 14:53:00,39.0,16.2,0.00,NW,326,0.0,0.0,39,0.00,,---,0.00,VWS V14.01,2013-02-06 19:53:00,
2013-02-06 15:08:00,39.7,16.8,0.00,WSW,248,0.0,2.2,39,0.00,,---,0.00,VWS V14.01,2013-02-06 20:08:00,
2013-02-06 15:23:00,39.9,17.0,0.00,South,172,0.0,2.2,39,0.00,,---,0.00,VWS V14.01,2013-02-06 20:23:00,
2013-02-06 15:30:00,39.7,16.8,0.00,WNW,293,0.0,2.2,39,0.00,,---,0.00,VWS V14.01,2013-02-06 20:30:00,
2013-02-06 15:35:00,39.2,16.3,0.00,NW,305,0.0,0.0,39,0.00,,---,0.00,VWS V14.01,2013-02-06 20:35:00,
2013-02-06 15:40:00,38.8,16.0,0.00,WNW,301,0.0,0.0,39,0.00,,---,0.00,VWS V14.01,2013-02-06 20:40:00,
2013-02-06 15:53:00,38.7,15.9,0.00,West,260,0.0,0.0,39,0.00,,---,0.00,VWS V14.01,2013-02-06 20:53:00,
2013-02-06 16:08:00,38.1,15.4,0.00,WNW,283,0.0,2.2,39,0.00,,---,0.00,VWS V14.01,2013-02-06 21:08:00,
2013-02-06 16:23:00,36.7,14.6,0.00,WNW,284,0.0,2.2,40,0.00,,---,0.00,VWS V14.01,2013-02-06 21:23:00,
2013-02-06 16:30:00,36.1,14.2,0.00,West,268,0.0,2.2,40,0.00,,---,0.00,VWS V14.01,2013-02-06 21:30:00,
2013-02-06 16:38:00,35.8,13.8,0.00,SE,136,0.0,0.0,40,0.00,,---,0.00,VWS V14.01,2013-02-06 21:38:00,
2013-02-06 16:53:00,36.0,14.0,0.00,SE,133,0.0,0.0,40,0.00,,---,0.00,VWS V14.01,2013-02-06 21:53:00,
2013-02-06 17:08:00,35.2,13.4,0.00,West,274,0.0,2.2,40,0.00,,---,0.00,VWS V14.01,2013-02-06 22:08:00,
2013-02-06 17:23:00,34.7,12.9,0.00,West,274,0.0,2.2,40,0.00,,---,0.00,VWS V14.01,2013-02-06 22:23:00,
2013-02-06 17:30:00,34.3,12.5,0.00,West,274,0.0,2.2,40,0.00,,---,0.00,VWS V14.01,2013-02-06 22:30:00,
2013-02-06 17:36:00,34.0,12.2,0.00,West,274,0.0,0.0,40,0.00,,---,0.00,VWS V14.01,2013-02-06 22:36:00,
2013-02-06 17:41:00,33.6,11.9,0.00,West,274,0.0,0.0,40,0.00,,---,0.00,VWS V14.01,2013-02-06 22:41:00,
2013-02-06 17:53:00,32.4,10.8,0.00,West,274,0.0,0.0,40,0.00,,---,0.00,VWS V14.01,2013-02-06 22:53:00,
2013-02-06 18:08:00,30.4,9.0,0.00,West,274,0.0,0.0,40,0.00,,---,0.00,VWS V14.01,2013-02-06 23:08:00,
2013-02-06 18:23:00,30.4,9.0,0.00,West,274,0.0,0.0,40,0.00,,---,0.00,VWS V14.01,2013-02-06 23:23:00,
2013-02-06 18:30:00,29.7,8.9,0.00,West,274,0.0,0.0,41,0.00,,---,0.00,VWS V14.01,2013-02-06 23:30:00,
2013-02-06 18:38:00,29.1,8.4,0.00,West,274,0.0,0.0,41,0.00,,---,0.00,VWS V14.01,2013-02-06 23:38:00,
2013-02-06 18:53:00,28.0,7.4,0.00,West,274,0.0,0.0,41,0.00,,---,0.00,VWS V14.01,2013-02-06 23:53:00,
2013-02-06 19:08:00,27.5,6.9,0.00,West,274,0.0,0.0,41,0.00,,---,0.00,VWS V14.01,2013-02-07 00:08:00,
2013-02-06 19:23:00,26.8,6.2,0.00,West,274,0.0,0.0,41,0.00,,---,0.00,VWS V14.01,2013-02-07 00:23:00,
2013-02-06 19:30:00,26.4,6.4,0.00,West,274,0.0,0.0,42,0.00,,---,0.00,VWS V14.01,2013-02-07 00:30:00,
2013-02-06 19:36:00,26.4,6.4,0.00,West,274,0.0,0.0,42,0.00,,---,0.00,VWS V14.01,2013-02-07 00:36:00,
2013-02-06 19:41:00,26.4,6.4,0.00,West,274,0.0,0.0,42,0.00,,---,0.00,VWS V14.01,2013-02-07 00:41:00,
2013-02-06 19:53:00,26.1,6.1,0.00,West,274,0.0,0.0,42,0.00,,---,0.00,VWS V14.01,2013-02-07 00:53:00,
2013-02-06 20:08:00,26.1,6.1,0.00,West,274,0.0,0.0,42,0.00,,---,0.00,VWS V14.01,2013-02-07 01:08:00,
2013-02-06 20:23:00,25.9,6.0,0.00,West,274,0.0,0.0,42,0.00,,---,0.00,VWS V14.01,2013-02-07 01:23:00,
2013-02-06 20:30:00,25.3,5.5,0.00,West,274,0.0,0.0,42,0.00,,---,0.00,VWS V14.01,2013-02-07 01:30:00,
2013-02-06 20:38:00,25.5,5.6,0.00,West,274,0.0,0.0,42,0.00,,---,0.00,VWS V14.01,2013-02-07 01:38:00,
2013-02-06 20:53:00,25.3,5.5,0.00,West,274,0.0,0.0,42,0.00,,---,0.00,VWS V14.01,2013-02-07 01:53:00,
2013-02-06 21:08:00,25.3,5.5,0.00,West,274,0.0,0.0,42,0.00,,---,0.00,VWS V14.01,2013-02-07 02:08:00,
2013-02-06 21:23:00,25.7,5.8,0.00,West,274,0.0,0.0,42,0.00,,---,0.00,VWS V14.01,2013-02-07 02:23:00,
2013-02-06 21:30:00,25.7,5.8,0.00,West,274,0.0,0.0,42,0.00,,---,0.00,VWS V14.01,2013-02-07 02:30:00,
2013-02-06 21:36:00,26.1,6.1,0.00,West,274,0.0,0.0,42,0.00,,---,0.00,VWS V14.01,2013-02-07 02:36:00,
2013-02-06 21:53:00,25.3,5.5,0.00,West,274,0.0,0.0,42,0.00,,---,0.00,VWS V14.01,2013-02-07 02:53:00,
2013-02-06 22:08:00,24.6,4.8,0.00,West,274,0.0,0.0,42,0.00,,---,0.00,VWS V14.01,2013-02-07 03:08:00,
2013-02-06 22:23:00,25.2,5.3,0.00,West,274,0.0,0.0,42,0.00,,---,0.00,VWS V14.01,2013-02-07 03:23:00,
2013-02-06 22:30:00,25.2,5.3,0.00,West,274,0.0,0.0,42,0.00,,---,0.00,VWS V14.01,2013-02-07 03:30:00,
2013-02-06 22:38:00,24.8,5.0,0.00,West,274,0.0,0.0,42,0.00,,---,0.00,VWS V14.01,2013-02-07 03:38:00,
2013-02-06 22:53:00,24.8,5.0,0.00,West,274,0.0,0.0,42,0.00,,---,0.00,VWS V14.01,2013-02-07 03:53:00,
2013-02-06 23:08:00,24.3,4.5,0.00,West,274,0.0,0.0,42,0.00,,---,0.00,VWS V14.01,2013-02-07 04:08:00,
2013-02-06 23:23:00,23.9,4.2,0.00,West,274,0.0,0.0,42,0.00,,---,0.00,VWS V14.01,2013-02-07 04:23:00,
2013-02-06 23:30:00,23.9,4.2,0.00,West,274,0.0,0.0,42,0.00,,---,0.00,VWS V14.01,2013-02-07 04:30:00,
2013-02-06 23:35:00,24.1,4.3,0.00,West,274,0.0,0.0,42,0.00,,---,0.00,VWS V14.01,2013-02-07 04:35:00,
2013-02-06 23:40:00,24.1,4.3,0.00,West,274,0.0,0.0,42,0.00,,---,0.00,VWS V14.01,2013-02-07 04:40:00,
2013-02-06 23:53:00,23.4,3.7,0.00,West,274,0.0,0.0,42,0.00,,---,0.00,VWS V14.01,2013-02-07 04:53:00,